Terminal Aerodrome Forecast
Issued by NWS Bismarck, ND

Home | Current Version | Previous Version | Graphics & Text | Print | Product List | Glossary On
Versions: 1 2 3 4 5 6 7 8 9 10 11 12 13 14 15 16 17 18 19 20 21 22 23 24
463
FTUS43 KBIS 212322
TAFBIS
TAF
KBIS 212322Z 2200/2224 02004KT P6SM VCSH BKN100
     FM220200 22004KT P6SM VCSH SCT120
     FM220800 28005KT P6SM BKN030
     FM221200 33008KT P6SM VCSH OVC008
     FM221900 35009KT P6SM OVC010=

USA.gov is the U.S. government's official web portal to all federal, state and local government web resources and services.